sensor_id;sensor_type;location;lat;lon;timestamp;P1;durP1;ratioP1;P2;durP2;ratioP2
10351;SDS011;5222;49.324;8.420;2022-09-20T00:00:13;1079.38;;;999.90;;
10351;SDS011;5222;49.324;8.420;2022-09-20T00:02:40;1065.15;;;996.30;;
10351;SDS011;5222;49.324;8.420;2022-09-20T00:05:07;1058.00;;;989.13;;
10351;SDS011;5222;49.324;8.420;2022-09-20T00:07:34;1062.75;;;994.40;;
10351;SDS011;5222;49.324;8.420;2022-09-20T00:10:00;1070.60;;;999.83;;
10351;SDS011;5222;49.324;8.420;2022-09-20T00:12:28;1078.82;;;999.90;;
10351;SDS011;5222;49.324;8.420;2022-09-20T00:14:55;1073.90;;;999.90;;
10351;SDS011;5222;49.324;8.420;2022-09-20T00:17:22;1064.10;;;995.17;;
10351;SDS011;5222;49.324;8.420;2022-09-20T00:19:49;1072.78;;;999.90;;
10351;SDS011;5222;49.324;8.420;2022-09-20T00:22:15;1079.75;;;999.90;;
10351;SDS011;5222;49.324;8.420;2022-09-20T00:24:42;1069.90;;;999.65;;
10351;SDS011;5222;49.324;8.420;2022-09-20T00:27:09;1061.97;;;993.27;;
10351;SDS011;5222;49.324;8.420;2022-09-20T00:29:37;1057.43;;;989.40;;
10351;SDS011;5222;49.324;8.420;2022-09-20T00:32:04;1061.28;;;992.47;;
10351;SDS011;5222;49.324;8.420;2022-09-20T00:34:31;1066.38;;;997.53;;
10351;SDS011;5222;49.324;8.420;2022-09-20T00:37:15;1067.13;;;998.28;;
10351;SDS011;5222;49.324;8.420;2022-09-20T00:39:42;1072.80;;;999.90;;
10351;SDS011;5222;49.324;8.420;2022-09-20T00:42:10;1065.22;;;996.75;;
10351;SDS011;5222;49.324;8.420;2022-09-20T00:47:27;1066.10;;;997.23;;
10351;SDS011;5222;49.324;8.420;2022-09-20T00:50:02;1070.40;;;999.90;;
10351;SDS011;5222;49.324;8.420;2022-09-20T00:52:35;1078.53;;;999.90;;
10351;SDS011;5222;49.324;8.420;2022-09-20T00:55:03;1070.47;;;999.90;;
10351;SDS011;5222;49.324;8.420;2022-09-20T00:57:33;1076.78;;;999.90;;
10351;SDS011;5222;49.324;8.420;2022-09-20T01:00:04;1062.97;;;994.63;;
10351;SDS011;5222;49.324;8.420;2022-09-20T01:02:33;1066.20;;;997.25;;
10351;SDS011;5222;49.324;8.420;2022-09-20T01:05:02;1068.65;;;999.40;;
10351;SDS011;5222;49.324;8.420;2022-09-20T01:07:29;1063.90;;;995.13;;
10351;SDS011;5222;49.324;8.420;2022-09-20T01:09:58;1065.65;;;996.50;;
10351;SDS011;5222;49.324;8.420;2022-09-20T01:12:25;1068.38;;;999.58;;
10351;SDS011;5222;49.324;8.420;2022-09-20T01:14:55;1065.40;;;996.28;;
10351;SDS011;5222;49.324;8.420;2022-09-20T01:17:26;1057.53;;;989.53;;
10351;SDS011;5222;49.324;8.420;2022-09-20T01:19:59;1066.43;;;997.67;;
10351;SDS011;5222;49.324;8.420;2022-09-20T01:22:36;1060.85;;;992.95;;
10351;SDS011;5222;49.324;8.420;2022-09-20T01:25:10;1050.82;;;982.53;;
10351;SDS011;5222;49.324;8.420;2022-09-20T01:27:43;1057.65;;;989.53;;
10351;SDS011;5222;49.324;8.420;2022-09-20T01:30:12;1074.97;;;999.90;;
10351;SDS011;5222;49.324;8.420;2022-09-20T01:32:43;1065.55;;;997.10;;
10351;SDS011;5222;49.324;8.420;2022-09-20T01:35:17;1058.35;;;990.30;;
10351;SDS011;5222;49.324;8.420;2022-09-20T01:37:49;1067.43;;;998.60;;
10351;SDS011;5222;49.324;8.420;2022-09-20T01:40:29;1063.13;;;995.20;;
10351;SDS011;5222;49.324;8.420;2022-09-20T01:43:05;1046.05;;;978.10;;
10351;SDS011;5222;49.324;8.420;2022-09-20T01:45:37;1052.40;;;983.08;;
10351;SDS011;5222;49.324;8.420;2022-09-20T01:48:12;1054.00;;;986.10;;
10351;SDS011;5222;49.324;8.420;2022-09-20T01:50:51;1045.60;;;977.65;;
10351;SDS011;5222;49.324;8.420;2022-09-20T01:53:45;1057.88;;;989.95;;
10351;SDS011;5222;49.324;8.420;2022-09-20T01:56:31;1044.10;;;976.53;;
10351;SDS011;5222;49.324;8.420;2022-09-20T02:02:24;1056.57;;;988.63;;
10351;SDS011;5222;49.324;8.420;2022-09-20T02:05:08;1051.55;;;983.25;;
10351;SDS011;5222;49.324;8.420;2022-09-20T02:07:59;1055.38;;;987.03;;
10351;SDS011;5222;49.324;8.420;2022-09-20T02:10:37;1059.68;;;991.15;;
10351;SDS011;5222;49.324;8.420;2022-09-20T02:13:20;1056.80;;;988.78;;
10351;SDS011;5222;49.324;8.420;2022-09-20T02:16:07;1053.35;;;984.05;;
10351;SDS011;5222;49.324;8.420;2022-09-20T02:18:46;1040.63;;;973.28;;
10351;SDS011;5222;49.324;8.420;2022-09-20T02:21:33;1041.90;;;974.40;;
10351;SDS011;5222;49.324;8.420;2022-09-20T02:24:05;1062.43;;;993.08;;
10351;SDS011;5222;49.324;8.420;2022-09-20T02:26:44;1041.93;;;974.83;;
10351;SDS011;5222;49.324;8.420;2022-09-20T02:29:24;1047.07;;;979.88;;
10351;SDS011;5222;49.324;8.420;2022-09-20T02:32:08;1035.00;;;967.63;;
10351;SDS011;5222;49.324;8.420;2022-09-20T02:40:37;1043.65;;;975.22;;
10351;SDS011;5222;49.324;8.420;2022-09-20T02:43:16;1032.18;;;964.85;;
10351;SDS011;5222;49.324;8.420;2022-09-20T02:45:54;1040.60;;;972.43;;
10351;SDS011;5222;49.324;8.420;2022-09-20T02:48:28;1029.28;;;961.47;;
10351;SDS011;5222;49.324;8.420;2022-09-20T02:51:03;1040.05;;;971.13;;
10351;SDS011;5222;49.324;8.420;2022-09-20T02:53:38;1035.68;;;968.28;;
10351;SDS011;5222;49.324;8.420;2022-09-20T02:56:12;1028.17;;;960.80;;
10351;SDS011;5222;49.324;8.420;2022-09-20T02:58:48;1035.33;;;967.27;;
10351;SDS011;5222;49.324;8.420;2022-09-20T03:01:25;1048.45;;;980.63;;
10351;SDS011;5222;49.324;8.420;2022-09-20T03:04:09;1030.78;;;963.10;;
10351;SDS011;5222;49.324;8.420;2022-09-20T03:06:49;1048.10;;;979.67;;
10351;SDS011;5222;49.324;8.420;2022-09-20T03:09:22;1043.20;;;975.00;;
10351;SDS011;5222;49.324;8.420;2022-09-20T03:11:58;1043.05;;;974.90;;
10351;SDS011;5222;49.324;8.420;2022-09-20T03:14:35;1042.95;;;975.03;;
10351;SDS011;5222;49.324;8.420;2022-09-20T03:17:04;1041.40;;;972.72;;
10351;SDS011;5222;49.324;8.420;2022-09-20T03:19:45;1055.72;;;987.42;;
10351;SDS011;5222;49.324;8.420;2022-09-20T03:22:25;1046.43;;;978.60;;
10351;SDS011;5222;49.324;8.420;2022-09-20T03:25:18;1048.03;;;979.50;;
10351;SDS011;5222;49.324;8.420;2022-09-20T03:27:58;1034.10;;;966.43;;
10351;SDS011;5222;49.324;8.420;2022-09-20T03:30:35;1050.00;;;981.00;;
10351;SDS011;5222;49.324;8.420;2022-09-20T03:33:11;1032.97;;;965.42;;
10351;SDS011;5222;49.324;8.420;2022-09-20T03:35:52;1028.13;;;958.83;;
10351;SDS011;5222;49.324;8.420;2022-09-20T03:38:42;1038.15;;;969.35;;
10351;SDS011;5222;49.324;8.420;2022-09-20T03:41:26;1040.40;;;972.70;;
10351;SDS011;5222;49.324;8.420;2022-09-20T03:44:09;1039.93;;;971.83;;
10351;SDS011;5222;49.324;8.420;2022-09-20T03:47:00;1037.80;;;969.53;;
10351;SDS011;5222;49.324;8.420;2022-09-20T03:49:48;1038.85;;;970.28;;
10351;SDS011;5222;49.324;8.420;2022-09-20T03:52:36;1045.25;;;977.22;;
10351;SDS011;5222;49.324;8.420;2022-09-20T03:58:40;1043.45;;;974.70;;
10351;SDS011;5222;49.324;8.420;2022-09-20T04:01:23;1041.10;;;972.93;;
10351;SDS011;5222;49.324;8.420;2022-09-20T04:04:06;1032.43;;;964.75;;
10351;SDS011;5222;49.324;8.420;2022-09-20T04:06:45;1042.90;;;974.85;;
10351;SDS011;5222;49.324;8.420;2022-09-20T04:09:27;1028.88;;;961.55;;
10351;SDS011;5222;49.324;8.420;2022-09-20T04:12:04;1046.25;;;977.35;;
10351;SDS011;5222;49.324;8.420;2022-09-20T04:14:39;1032.50;;;965.13;;
10351;SDS011;5222;49.324;8.420;2022-09-20T04:17:17;1041.40;;;973.00;;
10351;SDS011;5222;49.324;8.420;2022-09-20T04:19:55;1044.20;;;975.72;;
10351;SDS011;5222;49.324;8.420;2022-09-20T04:22:27;1044.13;;;976.28;;
10351;SDS011;5222;49.324;8.420;2022-09-20T04:24:58;1054.03;;;984.45;;
10351;SDS011;5222;49.324;8.420;2022-09-20T04:27:30;1047.22;;;978.55;;
10351;SDS011;5222;49.324;8.420;2022-09-20T04:30:04;1055.72;;;986.25;;
10351;SDS011;5222;49.324;8.420;2022-09-20T04:32:41;1037.18;;;969.60;;
10351;SDS011;5222;49.324;8.420;2022-09-20T04:35:15;1038.68;;;969.33;;
10351;SDS011;5222;49.324;8.420;2022-09-20T04:38:08;1039.70;;;970.65;;
10351;SDS011;5222;49.324;8.420;2022-09-20T04:40:47;1038.88;;;969.97;;
10351;SDS011;5222;49.324;8.420;2022-09-20T04:49:40;1041.38;;;972.08;;
10351;SDS011;5222;49.324;8.420;2022-09-20T04:52:44;1057.65;;;987.67;;
10351;SDS011;5222;49.324;8.420;2022-09-20T04:55:45;1057.60;;;986.35;;
10351;SDS011;5222;49.324;8.420;2022-09-20T04:58:31;1058.47;;;987.88;;
10351;SDS011;5222;49.324;8.420;2022-09-20T05:01:24;1065.00;;;994.85;;
10351;SDS011;5222;49.324;8.420;2022-09-20T05:07:29;1056.25;;;985.75;;
10351;SDS011;5222;49.324;8.420;2022-09-20T05:10:21;1039.32;;;969.72;;
10351;SDS011;5222;49.324;8.420;2022-09-20T05:13:11;1043.00;;;972.47;;
10351;SDS011;5222;49.324;8.420;2022-09-20T05:15:48;1063.03;;;990.23;;
10351;SDS011;5222;49.324;8.420;2022-09-20T05:18:27;1050.65;;;980.88;;
10351;SDS011;5222;49.324;8.420;2022-09-20T05:21:21;1062.93;;;991.92;;
10351;SDS011;5222;49.324;8.420;2022-09-20T05:24:22;1066.05;;;995.60;;
10351;SDS011;5222;49.324;8.420;2022-09-20T05:27:02;1081.95;;;999.90;;
10351;SDS011;5222;49.324;8.420;2022-09-20T05:29:48;1051.32;;;981.85;;
10351;SDS011;5222;49.324;8.420;2022-09-20T05:32:21;1066.60;;;995.42;;
10351;SDS011;5222;49.324;8.420;2022-09-20T05:34:52;1058.28;;;987.63;;
10351;SDS011;5222;49.324;8.420;2022-09-20T05:37:26;1066.07;;;995.28;;
10351;SDS011;5222;49.324;8.420;2022-09-20T05:40:02;1057.93;;;986.80;;
10351;SDS011;5222;49.324;8.420;2022-09-20T05:42:38;1065.53;;;994.55;;
10351;SDS011;5222;49.324;8.420;2022-09-20T05:45:21;1066.55;;;995.97;;
10351;SDS011;5222;49.324;8.420;2022-09-20T05:48:09;1072.20;;;999.57;;
10351;SDS011;5222;49.324;8.420;2022-09-20T05:50:43;1064.80;;;994.20;;
10351;SDS011;5222;49.324;8.420;2022-09-20T05:56:34;1078.65;;;999.90;;
10351;SDS011;5222;49.324;8.420;2022-09-20T05:59:21;1059.70;;;988.35;;
10351;SDS011;5222;49.324;8.420;2022-09-20T06:02:14;1048.43;;;977.53;;
10351;SDS011;5222;49.324;8.420;2022-09-20T06:04:51;1041.00;;;971.28;;
10351;SDS011;5222;49.324;8.420;2022-09-20T06:07:28;1063.03;;;991.90;;
10351;SDS011;5222;49.324;8.420;2022-09-20T06:10:23;1054.28;;;984.42;;
10351;SDS011;5222;49.324;8.420;2022-09-20T06:13:22;1053.97;;;983.60;;
10351;SDS011;5222;49.324;8.420;2022-09-20T06:15:59;1062.03;;;991.17;;
10351;SDS011;5222;49.324;8.420;2022-09-20T06:18:30;1053.77;;;983.87;;
10351;SDS011;5222;49.324;8.420;2022-09-20T06:21:04;1052.43;;;982.88;;
10351;SDS011;5222;49.324;8.420;2022-09-20T06:23:41;1028.15;;;960.55;;
10351;SDS011;5222;49.324;8.420;2022-09-20T06:26:09;1048.28;;;978.40;;
10351;SDS011;5222;49.324;8.420;2022-09-20T06:28:41;1039.43;;;970.63;;
10351;SDS011;5222;49.324;8.420;2022-09-20T06:31:12;1047.30;;;978.20;;
10351;SDS011;5222;49.324;8.420;2022-09-20T06:33:44;1041.15;;;972.92;;
10351;SDS011;5222;49.324;8.420;2022-09-20T06:36:17;1039.47;;;970.22;;
10351;SDS011;5222;49.324;8.420;2022-09-20T06:39:07;1035.30;;;966.50;;
10351;SDS011;5222;49.324;8.420;2022-09-20T06:42:07;1030.33;;;961.50;;
10351;SDS011;5222;49.324;8.420;2022-09-20T06:44:34;1037.82;;;969.80;;
10351;SDS011;5222;49.324;8.420;2022-09-20T06:47:05;1038.22;;;968.70;;
10351;SDS011;5222;49.324;8.420;2022-09-20T06:49:33;1029.45;;;960.47;;
10351;SDS011;5222;49.324;8.420;2022-09-20T06:52:01;1026.53;;;957.03;;
10351;SDS011;5222;49.324;8.420;2022-09-20T06:54:29;1019.37;;;951.60;;
10351;SDS011;5222;49.324;8.420;2022-09-20T06:56:57;1020.20;;;952.03;;
10351;SDS011;5222;49.324;8.420;2022-09-20T06:59:26;1024.15;;;955.47;;
10351;SDS011;5222;49.324;8.420;2022-09-20T07:01:53;1009.60;;;942.28;;
10351;SDS011;5222;49.324;8.420;2022-09-20T07:04:20;1019.78;;;952.28;;
10351;SDS011;5222;49.324;8.420;2022-09-20T07:06:52;1014.05;;;946.60;;
10351;SDS011;5222;49.324;8.420;2022-09-20T07:09:25;1016.05;;;948.30;;
10351;SDS011;5222;49.324;8.420;2022-09-20T07:11:52;1013.55;;;946.05;;
10351;SDS011;5222;49.324;8.420;2022-09-20T07:14:20;991.72;;;925.08;;
10351;SDS011;5222;49.324;8.420;2022-09-20T07:16:47;1012.92;;;945.63;;
10351;SDS011;5222;49.324;8.420;2022-09-20T07:19:14;1006.28;;;939.25;;
10351;SDS011;5222;49.324;8.420;2022-09-20T07:21:41;1008.40;;;940.38;;
10351;SDS011;5222;49.324;8.420;2022-09-20T07:24:11;999.28;;;932.03;;
10351;SDS011;5222;49.324;8.420;2022-09-20T07:26:39;1010.58;;;942.45;;
10351;SDS011;5222;49.324;8.420;2022-09-20T07:29:19;1013.90;;;945.35;;
10351;SDS011;5222;49.324;8.420;2022-09-20T07:31:47;1005.47;;;938.20;;
10351;SDS011;5222;49.324;8.420;2022-09-20T07:34:14;1001.85;;;934.72;;
10351;SDS011;5222;49.324;8.420;2022-09-20T07:36:42;987.70;;;921.43;;
10351;SDS011;5222;49.324;8.420;2022-09-20T07:39:10;985.67;;;919.10;;
10351;SDS011;5222;49.324;8.420;2022-09-20T07:41:37;996.63;;;929.17;;
10351;SDS011;5222;49.324;8.420;2022-09-20T07:44:04;980.17;;;913.15;;
10351;SDS011;5222;49.324;8.420;2022-09-20T07:46:46;998.50;;;932.40;;
10351;SDS011;5222;49.324;8.420;2022-09-20T07:49:12;977.10;;;911.28;;
10351;SDS011;5222;49.324;8.420;2022-09-20T07:51:39;961.90;;;896.37;;
10351;SDS011;5222;49.324;8.420;2022-09-20T07:54:06;937.00;;;871.00;;
10351;SDS011;5222;49.324;8.420;2022-09-20T07:56:35;904.33;;;840.55;;
10351;SDS011;5222;49.324;8.420;2022-09-20T07:59:02;940.65;;;876.15;;
10351;SDS011;5222;49.324;8.420;2022-09-20T08:01:29;917.17;;;852.58;;
10351;SDS011;5222;49.324;8.420;2022-09-20T08:03:56;903.53;;;840.65;;
10351;SDS011;5222;49.324;8.420;2022-09-20T08:06:23;926.97;;;862.92;;
10351;SDS011;5222;49.324;8.420;2022-09-20T08:08:50;914.73;;;850.87;;
10351;SDS011;5222;49.324;8.420;2022-09-20T08:11:19;915.45;;;851.78;;
10351;SDS011;5222;49.324;8.420;2022-09-20T08:13:51;912.67;;;849.00;;
10351;SDS011;5222;49.324;8.420;2022-09-20T08:16:19;920.13;;;855.08;;
10351;SDS011;5222;49.324;8.420;2022-09-20T08:18:46;917.27;;;853.73;;
10351;SDS011;5222;49.324;8.420;2022-09-20T08:21:14;913.85;;;849.95;;
10351;SDS011;5222;49.324;8.420;2022-09-20T08:23:42;910.97;;;847.50;;
10351;SDS011;5222;49.324;8.420;2022-09-20T08:26:12;906.45;;;842.47;;
10351;SDS011;5222;49.324;8.420;2022-09-20T08:28:41;903.72;;;839.67;;
10351;SDS011;5222;49.324;8.420;2022-09-20T08:31:10;895.33;;;830.60;;
10351;SDS011;5222;49.324;8.420;2022-09-20T08:33:38;882.92;;;821.17;;
10351;SDS011;5222;49.324;8.420;2022-09-20T08:36:06;876.05;;;814.55;;
10351;SDS011;5222;49.324;8.420;2022-09-20T08:38:35;909.72;;;846.50;;
10351;SDS011;5222;49.324;8.420;2022-09-20T08:41:04;900.00;;;836.55;;
10351;SDS011;5222;49.324;8.420;2022-09-20T08:43:37;931.67;;;867.42;;
10351;SDS011;5222;49.324;8.420;2022-09-20T08:46:06;918.08;;;855.00;;
10351;SDS011;5222;49.324;8.420;2022-09-20T08:48:39;920.75;;;856.88;;
10351;SDS011;5222;49.324;8.420;2022-09-20T08:51:08;924.07;;;860.53;;
10351;SDS011;5222;49.324;8.420;2022-09-20T08:53:38;952.60;;;888.03;;
10351;SDS011;5222;49.324;8.420;2022-09-20T08:56:09;953.15;;;888.60;;
10351;SDS011;5222;49.324;8.420;2022-09-20T08:58:36;929.00;;;864.90;;
10351;SDS011;5222;49.324;8.420;2022-09-20T09:01:06;958.08;;;893.10;;
10351;SDS011;5222;49.324;8.420;2022-09-20T09:03:38;959.42;;;893.72;;
10351;SDS011;5222;49.324;8.420;2022-09-20T09:06:09;988.25;;;920.85;;
10351;SDS011;5222;49.324;8.420;2022-09-20T09:08:38;967.10;;;901.57;;
10351;SDS011;5222;49.324;8.420;2022-09-20T09:11:11;976.90;;;909.85;;
10351;SDS011;5222;49.324;8.420;2022-09-20T09:13:42;968.03;;;902.58;;
10351;SDS011;5222;49.324;8.420;2022-09-20T09:16:15;954.83;;;889.38;;
10351;SDS011;5222;49.324;8.420;2022-09-20T09:18:45;951.92;;;887.33;;
10351;SDS011;5222;49.324;8.420;2022-09-20T09:21:16;979.17;;;913.33;;
10351;SDS011;5222;49.324;8.420;2022-09-20T09:23:45;958.67;;;894.10;;
10351;SDS011;5222;49.324;8.420;2022-09-20T09:26:18;953.23;;;888.70;;
10351;SDS011;5222;49.324;8.420;2022-09-20T09:28:46;967.97;;;902.65;;
10351;SDS011;5222;49.324;8.420;2022-09-20T09:31:28;971.38;;;905.97;;
10351;SDS011;5222;49.324;8.420;2022-09-20T09:33:56;960.60;;;895.70;;
10351;SDS011;5222;49.324;8.420;2022-09-20T09:36:23;954.13;;;890.25;;
10351;SDS011;5222;49.324;8.420;2022-09-20T09:41:41;954.97;;;890.03;;
10351;SDS011;5222;49.324;8.420;2022-09-20T09:44:17;950.55;;;886.40;;
10351;SDS011;5222;49.324;8.420;2022-09-20T09:46:46;961.20;;;896.80;;
10351;SDS011;5222;49.324;8.420;2022-09-20T09:49:16;949.20;;;884.97;;
10351;SDS011;5222;49.324;8.420;2022-09-20T09:51:58;943.27;;;879.03;;
10351;SDS011;5222;49.324;8.420;2022-09-20T09:54:30;945.25;;;879.40;;
10351;SDS011;5222;49.324;8.420;2022-09-20T09:57:05;916.80;;;854.43;;
10351;SDS011;5222;49.324;8.420;2022-09-20T09:59:55;926.00;;;862.90;;
10351;SDS011;5222;49.324;8.420;2022-09-20T10:02:44;934.03;;;870.25;;
10351;SDS011;5222;49.324;8.420;2022-09-20T10:05:29;943.40;;;879.00;;
10351;SDS011;5222;49.324;8.420;2022-09-20T10:08:05;951.70;;;887.90;;
10351;SDS011;5222;49.324;8.420;2022-09-20T10:10:41;963.15;;;897.83;;
10351;SDS011;5222;49.324;8.420;2022-09-20T10:13:21;958.72;;;893.00;;
10351;SDS011;5222;49.324;8.420;2022-09-20T10:15:54;926.15;;;860.83;;
10351;SDS011;5222;49.324;8.420;2022-09-20T10:18:30;937.35;;;872.22;;
10351;SDS011;5222;49.324;8.420;2022-09-20T10:21:13;902.33;;;839.90;;
10351;SDS011;5222;49.324;8.420;2022-09-20T10:23:56;946.45;;;882.15;;
10351;SDS011;5222;49.324;8.420;2022-09-20T10:26:52;934.92;;;869.97;;
10351;SDS011;5222;49.324;8.420;2022-09-20T10:29:48;903.33;;;839.83;;
10351;SDS011;5222;49.324;8.420;2022-09-20T10:32:28;904.78;;;841.63;;
10351;SDS011;5222;49.324;8.420;2022-09-20T10:35:12;884.97;;;822.35;;
10351;SDS011;5222;49.324;8.420;2022-09-20T10:43:54;630.40;;;576.80;;
10351;SDS011;5222;49.324;8.420;2022-09-20T10:46:30;626.03;;;571.70;;
10351;SDS011;5222;49.324;8.420;2022-09-20T10:49:05;594.80;;;542.22;;
10351;SDS011;5222;49.324;8.420;2022-09-20T10:51:47;592.60;;;539.13;;
10351;SDS011;5222;49.324;8.420;2022-09-20T10:54:29;577.08;;;524.58;;
10351;SDS011;5222;49.324;8.420;2022-09-20T10:57:13;590.95;;;537.60;;
10351;SDS011;5222;49.324;8.420;2022-09-20T10:59:51;598.58;;;545.63;;
10351;SDS011;5222;49.324;8.420;2022-09-20T11:02:40;590.50;;;538.23;;
10351;SDS011;5222;49.324;8.420;2022-09-20T11:05:22;610.20;;;556.93;;
10351;SDS011;5222;49.324;8.420;2022-09-20T11:07:57;580.93;;;528.77;;
10351;SDS011;5222;49.324;8.420;2022-09-20T11:10:33;623.88;;;569.88;;
10351;SDS011;5222;49.324;8.420;2022-09-20T11:13:07;593.73;;;540.70;;
10351;SDS011;5222;49.324;8.420;2022-09-20T11:15:44;612.83;;;556.72;;
10351;SDS011;5222;49.324;8.420;2022-09-20T11:18:15;592.17;;;537.90;;
10351;SDS011;5222;49.324;8.420;2022-09-20T11:20:50;621.92;;;567.50;;
10351;SDS011;5222;49.324;8.420;2022-09-20T11:23:23;889.15;;;826.80;;
10351;SDS011;5222;49.324;8.420;2022-09-20T11:26:06;896.37;;;833.70;;
10351;SDS011;5222;49.324;8.420;2022-09-20T11:28:38;947.28;;;882.28;;
10351;SDS011;5222;49.324;8.420;2022-09-20T11:31:09;930.38;;;866.47;;
10351;SDS011;5222;49.324;8.420;2022-09-20T11:33:43;958.67;;;893.83;;
10351;SDS011;5222;49.324;8.420;2022-09-20T11:36:14;943.78;;;880.42;;
10351;SDS011;5222;49.324;8.420;2022-09-20T11:38:45;944.47;;;879.83;;
10351;SDS011;5222;49.324;8.420;2022-09-20T11:41:19;943.85;;;878.58;;
10351;SDS011;5222;49.324;8.420;2022-09-20T11:43:51;943.80;;;878.53;;
10351;SDS011;5222;49.324;8.420;2022-09-20T11:46:19;935.85;;;872.03;;
10351;SDS011;5222;49.324;8.420;2022-09-20T11:48:51;961.40;;;895.28;;
10351;SDS011;5222;49.324;8.420;2022-09-20T11:51:27;946.78;;;882.05;;
10351;SDS011;5222;49.324;8.420;2022-09-20T11:54:14;929.70;;;866.58;;
10351;SDS011;5222;49.324;8.420;2022-09-20T11:57:13;912.28;;;850.10;;
10351;SDS011;5222;49.324;8.420;2022-09-20T11:59:42;900.40;;;838.30;;
10351;SDS011;5222;49.324;8.420;2022-09-20T12:02:17;906.47;;;843.17;;
10351;SDS011;5222;49.324;8.420;2022-09-20T12:04:48;926.22;;;862.78;;
10351;SDS011;5222;49.324;8.420;2022-09-20T12:07:18;909.30;;;846.60;;
10351;SDS011;5222;49.324;8.420;2022-09-20T12:09:53;919.95;;;855.92;;
10351;SDS011;5222;49.324;8.420;2022-09-20T12:12:29;906.77;;;843.67;;
10351;SDS011;5222;49.324;8.420;2022-09-20T12:15:00;937.10;;;873.20;;
10351;SDS011;5222;49.324;8.420;2022-09-20T12:26:10;939.70;;;876.38;;
10351;SDS011;5222;49.324;8.420;2022-09-20T12:28:59;964.08;;;899.60;;
10351;SDS011;5222;49.324;8.420;2022-09-20T12:31:36;935.42;;;872.35;;
10351;SDS011;5222;49.324;8.420;2022-09-20T12:34:27;943.53;;;879.88;;
10351;SDS011;5222;49.324;8.420;2022-09-20T12:37:15;953.13;;;889.65;;
10351;SDS011;5222;49.324;8.420;2022-09-20T12:39:49;949.78;;;885.42;;
10351;SDS011;5222;49.324;8.420;2022-09-20T12:42:28;935.17;;;871.40;;
10351;SDS011;5222;49.324;8.420;2022-09-20T12:44:59;962.35;;;897.70;;
10351;SDS011;5222;49.324;8.420;2022-09-20T12:47:29;957.53;;;892.60;;
10351;SDS011;5222;49.324;8.420;2022-09-20T12:49:59;967.80;;;903.55;;
10351;SDS011;5222;49.324;8.420;2022-09-20T12:52:48;960.88;;;896.08;;
10351;SDS011;5222;49.324;8.420;2022-09-20T12:55:34;988.72;;;919.72;;
10351;SDS011;5222;49.324;8.420;2022-09-20T12:58:20;951.88;;;887.60;;
10351;SDS011;5222;49.324;8.420;2022-09-20T13:07:28;936.33;;;872.50;;
10351;SDS011;5222;49.324;8.420;2022-09-20T13:10:12;958.92;;;893.88;;
10351;SDS011;5222;49.324;8.420;2022-09-20T13:12:46;934.40;;;871.55;;
10351;SDS011;5222;49.324;8.420;2022-09-20T13:15:15;959.13;;;894.45;;
10351;SDS011;5222;49.324;8.420;2022-09-20T13:17:47;942.42;;;878.78;;
10351;SDS011;5222;49.324;8.420;2022-09-20T13:20:18;923.20;;;860.75;;
10351;SDS011;5222;49.324;8.420;2022-09-20T13:22:48;959.17;;;894.65;;
10351;SDS011;5222;49.324;8.420;2022-09-20T13:25:17;931.95;;;868.95;;
10351;SDS011;5222;49.324;8.420;2022-09-20T13:27:46;931.03;;;867.33;;
10351;SDS011;5222;49.324;8.420;2022-09-20T13:30:16;926.83;;;863.80;;
10351;SDS011;5222;49.324;8.420;2022-09-20T13:32:44;911.03;;;849.10;;
10351;SDS011;5222;49.324;8.420;2022-09-20T13:35:14;951.73;;;888.20;;
10351;SDS011;5222;49.324;8.420;2022-09-20T13:37:46;953.40;;;889.40;;
10351;SDS011;5222;49.324;8.420;2022-09-20T13:40:18;952.67;;;888.15;;
10351;SDS011;5222;49.324;8.420;2022-09-20T13:42:46;949.33;;;884.87;;
10351;SDS011;5222;49.324;8.420;2022-09-20T13:45:15;940.58;;;876.38;;
10351;SDS011;5222;49.324;8.420;2022-09-20T13:47:43;942.33;;;878.42;;
10351;SDS011;5222;49.324;8.420;2022-09-20T13:50:17;935.60;;;872.63;;
10351;SDS011;5222;49.324;8.420;2022-09-20T13:52:48;943.50;;;880.40;;
10351;SDS011;5222;49.324;8.420;2022-09-20T13:55:20;940.53;;;877.47;;
10351;SDS011;5222;49.324;8.420;2022-09-20T13:57:53;939.83;;;877.05;;
10351;SDS011;5222;49.324;8.420;2022-09-20T14:00:22;953.00;;;888.97;;
10351;SDS011;5222;49.324;8.420;2022-09-20T14:02:50;973.83;;;908.97;;
10351;SDS011;5222;49.324;8.420;2022-09-20T14:05:21;952.63;;;888.35;;
10351;SDS011;5222;49.324;8.420;2022-09-20T14:07:51;969.92;;;904.60;;
10351;SDS011;5222;49.324;8.420;2022-09-20T14:10:26;962.92;;;898.88;;
10351;SDS011;5222;49.324;8.420;2022-09-20T14:13:00;964.17;;;899.00;;
10351;SDS011;5222;49.324;8.420;2022-09-20T14:15:33;970.83;;;904.60;;
10351;SDS011;5222;49.324;8.420;2022-09-20T14:18:02;973.47;;;907.10;;
10351;SDS011;5222;49.324;8.420;2022-09-20T14:20:32;959.92;;;895.55;;
10351;SDS011;5222;49.324;8.420;2022-09-20T14:22:59;980.03;;;914.47;;
10351;SDS011;5222;49.324;8.420;2022-09-20T14:25:27;987.30;;;920.42;;
10351;SDS011;5222;49.324;8.420;2022-09-20T14:28:05;965.60;;;900.38;;
10351;SDS011;5222;49.324;8.420;2022-09-20T14:30:40;958.50;;;893.03;;
10351;SDS011;5222;49.324;8.420;2022-09-20T14:33:10;961.08;;;895.17;;
10351;SDS011;5222;49.324;8.420;2022-09-20T14:35:47;966.30;;;899.15;;
10351;SDS011;5222;49.324;8.420;2022-09-20T14:38:15;972.92;;;907.38;;
10351;SDS011;5222;49.324;8.420;2022-09-20T14:40:44;953.92;;;889.08;;
10351;SDS011;5222;49.324;8.420;2022-09-20T14:43:19;954.85;;;890.30;;
10351;SDS011;5222;49.324;8.420;2022-09-20T14:45:50;963.13;;;897.35;;
10351;SDS011;5222;49.324;8.420;2022-09-20T14:48:30;952.70;;;888.55;;
10351;SDS011;5222;49.324;8.420;2022-09-20T14:51:10;956.72;;;891.30;;
10351;SDS011;5222;49.324;8.420;2022-09-20T14:53:47;956.53;;;891.15;;
10351;SDS011;5222;49.324;8.420;2022-09-20T14:56:16;959.95;;;894.67;;
10351;SDS011;5222;49.324;8.420;2022-09-20T14:59:02;951.30;;;886.63;;
10351;SDS011;5222;49.324;8.420;2022-09-20T15:01:30;945.70;;;881.42;;
10351;SDS011;5222;49.324;8.420;2022-09-20T15:03:57;950.22;;;886.38;;
10351;SDS011;5222;49.324;8.420;2022-09-20T15:06:32;964.00;;;897.92;;
10351;SDS011;5222;49.324;8.420;2022-09-20T15:09:00;952.53;;;887.40;;
10351;SDS011;5222;49.324;8.420;2022-09-20T15:11:28;944.27;;;879.87;;
10351;SDS011;5222;49.324;8.420;2022-09-20T15:13:55;962.95;;;896.85;;
10351;SDS011;5222;49.324;8.420;2022-09-20T15:16:22;955.70;;;890.35;;
10351;SDS011;5222;49.324;8.420;2022-09-20T15:18:49;959.00;;;893.03;;
10351;SDS011;5222;49.324;8.420;2022-09-20T15:21:16;970.55;;;905.30;;
10351;SDS011;5222;49.324;8.420;2022-09-20T15:23:44;971.23;;;904.73;;
10351;SDS011;5222;49.324;8.420;2022-09-20T15:26:11;955.53;;;890.95;;
10351;SDS011;5222;49.324;8.420;2022-09-20T15:28:39;958.05;;;892.95;;
10351;SDS011;5222;49.324;8.420;2022-09-20T15:31:08;964.88;;;899.60;;
10351;SDS011;5222;49.324;8.420;2022-09-20T15:33:35;967.25;;;899.65;;
10351;SDS011;5222;49.324;8.420;2022-09-20T15:36:02;974.58;;;908.35;;
10351;SDS011;5222;49.324;8.420;2022-09-20T15:38:30;981.40;;;913.15;;